sensor_id;sensor_type;location;lat;lon;timestamp;pressure;altitude;pressure_sealevel;temperature;humidity
36254;BME280;22291;52.250;21.228;2023-02-20T00:01:02;100343.55;;;0.33;75.16
36254;BME280;22291;52.250;21.228;2023-02-20T00:03:29;100335.19;;;0.27;75.50
36254;BME280;22291;52.250;21.228;2023-02-20T00:05:57;100325.52;;;0.21;75.95
36254;BME280;22291;52.250;21.228;2023-02-20T00:08:23;100325.42;;;0.16;76.34
36254;BME280;22291;52.250;21.228;2023-02-20T00:10:49;100317.36;;;0.11;77.77
36254;BME280;22291;52.250;21.228;2023-02-20T00:13:16;100310.32;;;0.05;77.20
36254;BME280;22291;52.250;21.228;2023-02-20T00:15:42;100311.32;;;0.01;77.37
36254;BME280;22291;52.250;21.228;2023-02-20T00:18:08;100306.23;;;-0.01;77.78
36254;BME280;22291;52.250;21.228;2023-02-20T00:20:36;100304.28;;;-0.05;78.14
36254;BME280;22291;52.250;21.228;2023-02-20T00:23:02;100292.05;;;-0.06;78.40
36254;BME280;22291;52.250;21.228;2023-02-20T00:25:28;100296.80;;;-0.08;78.79
36254;BME280;22291;52.250;21.228;2023-02-20T00:27:54;100288.83;;;-0.08;78.83
36254;BME280;22291;52.250;21.228;2023-02-20T00:30:23;100298.41;;;-0.07;78.80
36254;BME280;22291;52.250;21.228;2023-02-20T00:32:52;100302.69;;;-0.06;79.06
36254;BME280;22291;52.250;21.228;2023-02-20T00:35:23;100298.73;;;-0.04;78.82
36254;BME280;22291;52.250;21.228;2023-02-20T00:37:53;100290.25;;;-0.03;78.82
36254;BME280;22291;52.250;21.228;2023-02-20T00:40:23;100298.79;;;-0.01;79.13
36254;BME280;22291;52.250;21.228;2023-02-20T00:42:50;100297.49;;;0.02;78.86
36254;BME280;22291;52.250;21.228;2023-02-20T00:45:20;100300.75;;;0.04;78.90
36254;BME280;22291;52.250;21.228;2023-02-20T00:47:47;100303.44;;;0.06;78.86
36254;BME280;22291;52.250;21.228;2023-02-20T00:50:16;100304.83;;;0.09;78.65
36254;BME280;22291;52.250;21.228;2023-02-20T00:52:45;100303.52;;;0.11;78.67
36254;BME280;22291;52.250;21.228;2023-02-20T00:55:13;100319.02;;;0.14;78.45
36254;BME280;22291;52.250;21.228;2023-02-20T00:57:40;100306.27;;;0.16;78.32
36254;BME280;22291;52.250;21.228;2023-02-20T01:00:14;100306.59;;;0.20;78.43
36254;BME280;22291;52.250;21.228;2023-02-20T01:02:41;100301.58;;;0.21;78.25
36254;BME280;22291;52.250;21.228;2023-02-20T01:05:07;100290.96;;;0.24;78.06
36254;BME280;22291;52.250;21.228;2023-02-20T01:07:33;100297.43;;;0.28;78.07
36254;BME280;22291;52.250;21.228;2023-02-20T01:09:59;100295.03;;;0.29;77.86
36254;BME280;22291;52.250;21.228;2023-02-20T01:12:25;100294.56;;;0.32;77.63
36254;BME280;22291;52.250;21.228;2023-02-20T01:14:51;100291.96;;;0.34;77.44
36254;BME280;22291;52.250;21.228;2023-02-20T01:17:20;100303.16;;;0.36;77.29
36254;BME280;22291;52.250;21.228;2023-02-20T01:19:48;100292.81;;;0.38;77.32
36254;BME280;22291;52.250;21.228;2023-02-20T01:22:16;100297.63;;;0.41;77.32
36254;BME280;22291;52.250;21.228;2023-02-20T01:24:42;100287.81;;;0.41;77.14
36254;BME280;22291;52.250;21.228;2023-02-20T01:27:10;100282.52;;;0.44;77.02
36254;BME280;22291;52.250;21.228;2023-02-20T01:29:36;100273.50;;;0.45;77.03
36254;BME280;22291;52.250;21.228;2023-02-20T01:32:04;100277.75;;;0.46;76.86
36254;BME280;22291;52.250;21.228;2023-02-20T01:34:31;100283.91;;;0.46;76.68
36254;BME280;22291;52.250;21.228;2023-02-20T01:36:57;100269.77;;;0.46;76.62
36254;BME280;22291;52.250;21.228;2023-02-20T01:39:27;100280.95;;;0.45;76.48
36254;BME280;22291;52.250;21.228;2023-02-20T01:42:00;100277.25;;;0.46;76.52
36254;BME280;22291;52.250;21.228;2023-02-20T01:44:31;100270.59;;;0.46;76.49
36254;BME280;22291;52.250;21.228;2023-02-20T01:47:05;100282.57;;;0.46;76.43
36254;BME280;22291;52.250;21.228;2023-02-20T01:49:36;100283.08;;;0.46;76.51
36254;BME280;22291;52.250;21.228;2023-02-20T01:52:13;100284.94;;;0.45;76.61
36254;BME280;22291;52.250;21.228;2023-02-20T01:54:45;100279.61;;;0.45;76.63
36254;BME280;22291;52.250;21.228;2023-02-20T01:57:20;100269.27;;;0.46;76.56
36254;BME280;22291;52.250;21.228;2023-02-20T01:59:51;100275.38;;;0.47;76.64
36254;BME280;22291;52.250;21.228;2023-02-20T02:02:22;100272.48;;;0.48;76.50
36254;BME280;22291;52.250;21.228;2023-02-20T02:04:50;100268.49;;;0.48;76.62
36254;BME280;22291;52.250;21.228;2023-02-20T02:07:17;100266.36;;;0.48;76.66
36254;BME280;22291;52.250;21.228;2023-02-20T02:09:57;100263.44;;;0.49;76.68
36254;BME280;22291;52.250;21.228;2023-02-20T02:12:24;100270.91;;;0.50;76.60
36254;BME280;22291;52.250;21.228;2023-02-20T02:14:51;100261.36;;;0.51;76.62
36254;BME280;22291;52.250;21.228;2023-02-20T02:17:45;100261.63;;;0.52;76.70
36254;BME280;22291;52.250;21.228;2023-02-20T02:20:42;100254.17;;;0.52;76.70
36254;BME280;22291;52.250;21.228;2023-02-20T02:23:26;100263.00;;;0.55;76.62
36254;BME280;22291;52.250;21.228;2023-02-20T02:31:50;100262.23;;;0.57;76.51
36254;BME280;22291;52.250;21.228;2023-02-20T02:42:55;100265.45;;;0.59;76.62
36254;BME280;22291;52.250;21.228;2023-02-20T02:45:27;100252.14;;;0.59;76.69
36254;BME280;22291;52.250;21.228;2023-02-20T02:48:04;100254.01;;;0.59;76.65
36254;BME280;22291;52.250;21.228;2023-02-20T02:50:42;100251.64;;;0.60;76.71
36254;BME280;22291;52.250;21.228;2023-02-20T02:53:12;100245.78;;;0.60;76.63
36254;BME280;22291;52.250;21.228;2023-02-20T02:55:39;100250.03;;;0.61;76.81
36254;BME280;22291;52.250;21.228;2023-02-20T02:58:10;100253.77;;;0.60;76.87
36254;BME280;22291;52.250;21.228;2023-02-20T03:03:28;100259.11;;;0.63;76.90
36254;BME280;22291;52.250;21.228;2023-02-20T03:08:43;100256.21;;;0.64;76.80
36254;BME280;22291;52.250;21.228;2023-02-20T03:11:19;100260.76;;;0.66;76.78
36254;BME280;22291;52.250;21.228;2023-02-20T03:14:08;100256.82;;;0.69;76.79
36254;BME280;22291;52.250;21.228;2023-02-20T03:17:17;100258.45;;;0.70;76.73
36254;BME280;22291;52.250;21.228;2023-02-20T03:20:04;100248.86;;;0.71;76.72
36254;BME280;22291;52.250;21.228;2023-02-20T03:22:55;100260.09;;;0.73;76.59
36254;BME280;22291;52.250;21.228;2023-02-20T03:25:32;100263.84;;;0.75;76.56
36254;BME280;22291;52.250;21.228;2023-02-20T03:30:44;100259.58;;;0.77;76.52
36254;BME280;22291;52.250;21.228;2023-02-20T03:33:40;100250.55;;;0.78;76.42
36254;BME280;22291;52.250;21.228;2023-02-20T03:36:31;100257.74;;;0.77;76.41
36254;BME280;22291;52.250;21.228;2023-02-20T03:39:25;100248.42;;;0.77;76.31
36254;BME280;22291;52.250;21.228;2023-02-20T03:42:14;100251.09;;;0.77;76.41
36254;BME280;22291;52.250;21.228;2023-02-20T03:45:02;100258.25;;;0.77;76.35
36254;BME280;22291;52.250;21.228;2023-02-20T03:47:35;100257.19;;;0.75;76.35
36254;BME280;22291;52.250;21.228;2023-02-20T03:50:08;100249.15;;;0.72;76.50
36254;BME280;22291;52.250;21.228;2023-02-20T03:52:55;100260.84;;;0.71;76.41
36254;BME280;22291;52.250;21.228;2023-02-20T03:55:24;100244.59;;;0.70;76.52
36254;BME280;22291;52.250;21.228;2023-02-20T03:57:53;100249.61;;;0.67;76.55
36254;BME280;22291;52.250;21.228;2023-02-20T04:00:27;100244.52;;;0.65;76.62
36254;BME280;22291;52.250;21.228;2023-02-20T04:02:58;100243.45;;;0.66;76.86
36254;BME280;22291;52.250;21.228;2023-02-20T04:05:31;100243.73;;;0.65;76.73
36254;BME280;22291;52.250;21.228;2023-02-20T04:08:10;100247.96;;;0.63;76.73
36254;BME280;22291;52.250;21.228;2023-02-20T04:10:49;100250.57;;;0.61;76.74
36254;BME280;22291;52.250;21.228;2023-02-20T04:13:18;100250.81;;;0.59;76.85
36254;BME280;22291;52.250;21.228;2023-02-20T04:15:46;100244.39;;;0.58;76.94
36254;BME280;22291;52.250;21.228;2023-02-20T04:18:16;100244.13;;;0.57;76.91
36254;BME280;22291;52.250;21.228;2023-02-20T04:20:50;100229.98;;;0.53;77.00
36254;BME280;22291;52.250;21.228;2023-02-20T04:23:20;100235.30;;;0.53;76.97
36254;BME280;22291;52.250;21.228;2023-02-20T04:25:55;100235.30;;;0.53;77.25
36254;BME280;22291;52.250;21.228;2023-02-20T04:28:29;100226.76;;;0.51;77.35
36254;BME280;22291;52.250;21.228;2023-02-20T04:30:57;100232.08;;;0.51;77.16
36254;BME280;22291;52.250;21.228;2023-02-20T04:33:24;100229.42;;;0.51;77.23
36254;BME280;22291;52.250;21.228;2023-02-20T04:35:50;100240.57;;;0.51;77.18
36254;BME280;22291;52.250;21.228;2023-02-20T04:38:20;100232.03;;;0.49;77.14
36254;BME280;22291;52.250;21.228;2023-02-20T04:40:47;100230.44;;;0.48;77.26
36254;BME280;22291;52.250;21.228;2023-02-20T04:43:13;100225.61;;;0.47;77.16
36254;BME280;22291;52.250;21.228;2023-02-20T04:45:39;100209.89;;;0.46;77.35
36254;BME280;22291;52.250;21.228;2023-02-20T04:48:08;100216.78;;;0.44;77.25
36254;BME280;22291;52.250;21.228;2023-02-20T04:50:34;100215.98;;;0.44;77.44
36254;BME280;22291;52.250;21.228;2023-02-20T04:53:02;100214.66;;;0.44;77.55
36254;BME280;22291;52.250;21.228;2023-02-20T04:55:30;100208.24;;;0.42;77.56
36254;BME280;22291;52.250;21.228;2023-02-20T04:57:57;100203.45;;;0.42;77.70
36254;BME280;22291;52.250;21.228;2023-02-20T05:00:25;100203.45;;;0.42;77.71
36254;BME280;22291;52.250;21.228;2023-02-20T05:02:54;100201.33;;;0.41;77.85
36254;BME280;22291;52.250;21.228;2023-02-20T05:05:25;100202.07;;;0.39;77.74
36254;BME280;22291;52.250;21.228;2023-02-20T05:07:55;100201.27;;;0.39;77.86
36254;BME280;22291;52.250;21.228;2023-02-20T05:10:26;100205.80;;;0.38;77.86
36254;BME280;22291;52.250;21.228;2023-02-20T05:12:53;100200.19;;;0.37;78.11
36254;BME280;22291;52.250;21.228;2023-02-20T05:15:24;100201.27;;;0.39;78.05
36254;BME280;22291;52.250;21.228;2023-02-20T05:17:54;100198.08;;;0.39;78.16
36254;BME280;22291;52.250;21.228;2023-02-20T05:20:20;100191.42;;;0.39;78.13
36254;BME280;22291;52.250;21.228;2023-02-20T05:22:48;100189.05;;;0.40;78.31
36254;BME280;22291;52.250;21.228;2023-02-20T05:25:14;100198.12;;;0.42;78.41
36254;BME280;22291;52.250;21.228;2023-02-20T05:27:41;100177.39;;;0.44;78.62
36254;BME280;22291;52.250;21.228;2023-02-20T05:30:10;100180.61;;;0.46;78.61
36254;BME280;22291;52.250;21.228;2023-02-20T05:32:38;100185.19;;;0.48;78.65
36254;BME280;22291;52.250;21.228;2023-02-20T05:35:07;100175.09;;;0.50;78.70
36254;BME280;22291;52.250;21.228;2023-02-20T05:37:33;100187.63;;;0.52;78.76
36254;BME280;22291;52.250;21.228;2023-02-20T05:39:59;100186.06;;;0.53;78.96
36254;BME280;22291;52.250;21.228;2023-02-20T05:42:27;100198.06;;;0.56;78.87
36254;BME280;22291;52.250;21.228;2023-02-20T05:44:53;100194.91;;;0.59;79.26
36254;BME280;22291;52.250;21.228;2023-02-20T05:47:22;100177.37;;;0.61;79.11
36254;BME280;22291;52.250;21.228;2023-02-20T05:49:48;100181.16;;;0.65;79.32
36254;BME280;22291;52.250;21.228;2023-02-20T05:52:14;100178.23;;;0.66;79.50
36254;BME280;22291;52.250;21.228;2023-02-20T05:54:44;100167.09;;;0.69;79.24
36254;BME280;22291;52.250;21.228;2023-02-20T05:57:14;100157.53;;;0.71;79.48
36254;BME280;22291;52.250;21.228;2023-02-20T05:59:40;100161.58;;;0.73;79.46
36254;BME280;22291;52.250;21.228;2023-02-20T06:02:06;100149.61;;;0.76;79.42
36254;BME280;22291;52.250;21.228;2023-02-20T06:04:33;100152.33;;;0.79;79.51
36254;BME280;22291;52.250;21.228;2023-02-20T06:06:59;100157.91;;;0.80;79.88
36254;BME280;22291;52.250;21.228;2023-02-20T06:09:25;100147.06;;;0.84;79.52
36254;BME280;22291;52.250;21.228;2023-02-20T06:11:54;100151.61;;;0.86;79.58
36254;BME280;22291;52.250;21.228;2023-02-20T06:14:24;100151.38;;;0.90;79.42
36254;BME280;22291;52.250;21.228;2023-02-20T06:16:52;100157.28;;;0.92;79.49
36254;BME280;22291;52.250;21.228;2023-02-20T06:19:22;100151.44;;;0.95;79.36
36254;BME280;22291;52.250;21.228;2023-02-20T06:21:52;100147.75;;;0.99;79.31
36254;BME280;22291;52.250;21.228;2023-02-20T06:24:20;100156.08;;;1.02;79.34
36254;BME280;22291;52.250;21.228;2023-02-20T06:26:47;100141.19;;;1.06;79.27
36254;BME280;22291;52.250;21.228;2023-02-20T06:29:17;100144.41;;;1.08;79.19
36254;BME280;22291;52.250;21.228;2023-02-20T06:31:44;100129.55;;;1.13;79.14
36254;BME280;22291;52.250;21.228;2023-02-20T06:34:14;100141.02;;;1.16;79.08
36254;BME280;22291;52.250;21.228;2023-02-20T06:36:43;100136.56;;;1.21;78.94
36254;BME280;22291;52.250;21.228;2023-02-20T06:39:12;100131.00;;;1.25;78.93
36254;BME280;22291;52.250;21.228;2023-02-20T06:41:39;100134.79;;;1.29;78.92
36254;BME280;22291;52.250;21.228;2023-02-20T06:44:05;100127.34;;;1.32;78.87
36254;BME280;22291;52.250;21.228;2023-02-20T06:46:32;100122.31;;;1.35;78.80
36254;BME280;22291;52.250;21.228;2023-02-20T06:49:00;100127.40;;;1.39;78.83
36254;BME280;22291;52.250;21.228;2023-02-20T06:51:29;100124.78;;;1.44;78.70
36254;BME280;22291;52.250;21.228;2023-02-20T06:54:00;100118.41;;;1.45;78.59
36254;BME280;22291;52.250;21.228;2023-02-20T06:56:31;100118.75;;;1.52;78.70
36254;BME280;22291;52.250;21.228;2023-02-20T06:59:02;100110.22;;;1.55;78.63
36254;BME280;22291;52.250;21.228;2023-02-20T07:01:37;100116.38;;;1.58;78.50
36254;BME280;22291;52.250;21.228;2023-02-20T07:04:17;100118.83;;;1.62;78.59
36254;BME280;22291;52.250;21.228;2023-02-20T07:06:46;100129.00;;;1.67;78.44
36254;BME280;22291;52.250;21.228;2023-02-20T07:09:16;100114.34;;;1.70;78.33
36254;BME280;22291;52.250;21.228;2023-02-20T07:11:46;100126.39;;;1.75;78.41
36254;BME280;22291;52.250;21.228;2023-02-20T07:14:15;100128.05;;;1.79;78.32
36254;BME280;22291;52.250;21.228;2023-02-20T07:16:43;100113.67;;;1.85;78.31
36254;BME280;22291;52.250;21.228;2023-02-20T07:19:11;100096.41;;;1.93;78.42
36254;BME280;22291;52.250;21.228;2023-02-20T07:21:39;100094.89;;;2.04;78.44
36254;BME280;22291;52.250;21.228;2023-02-20T07:24:07;100091.20;;;2.16;78.32
36254;BME280;22291;52.250;21.228;2023-02-20T07:26:34;100087.55;;;2.30;78.44
36254;BME280;22291;52.250;21.228;2023-02-20T07:29:02;100089.98;;;2.34;77.95
36254;BME280;22291;52.250;21.228;2023-02-20T07:31:30;100092.94;;;2.37;77.89
36254;BME280;22291;52.250;21.228;2023-02-20T07:33:58;100086.83;;;2.42;77.53
36254;BME280;22291;52.250;21.228;2023-02-20T07:36:25;100082.84;;;2.50;77.91
36254;BME280;22291;52.250;21.228;2023-02-20T07:38:57;100091.70;;;2.58;77.65
36254;BME280;22291;52.250;21.228;2023-02-20T07:41:27;100096.55;;;2.66;77.50
36254;BME280;22291;52.250;21.228;2023-02-20T07:44:04;100086.70;;;2.74;77.73
36254;BME280;22291;52.250;21.228;2023-02-20T07:46:32;100087.79;;;2.84;77.17
36254;BME280;22291;52.250;21.228;2023-02-20T07:49:04;100100.10;;;2.92;77.39
36254;BME280;22291;52.250;21.228;2023-02-20T07:51:32;100092.64;;;2.97;76.82
36254;BME280;22291;52.250;21.228;2023-02-20T07:54:00;100080.08;;;2.97;76.79
36254;BME280;22291;52.250;21.228;2023-02-20T07:56:27;100065.13;;;2.96;76.34
36254;BME280;22291;52.250;21.228;2023-02-20T07:58:57;100056.58;;;2.97;76.76
36254;BME280;22291;52.250;21.228;2023-02-20T08:01:23;100052.56;;;2.97;76.46
36254;BME280;22291;52.250;21.228;2023-02-20T08:03:50;100042.93;;;2.96;76.40
36254;BME280;22291;52.250;21.228;2023-02-20T08:06:18;100037.34;;;2.95;76.57
36254;BME280;22291;52.250;21.228;2023-02-20T08:08:50;100030.14;;;2.98;76.80
36254;BME280;22291;52.250;21.228;2023-02-20T08:11:19;100030.92;;;2.98;76.70
36254;BME280;22291;52.250;21.228;2023-02-20T08:13:47;100021.84;;;3.02;76.84
36254;BME280;22291;52.250;21.228;2023-02-20T08:16:16;100011.97;;;3.05;76.72
36254;BME280;22291;52.250;21.228;2023-02-20T08:18:44;100022.38;;;3.09;76.67
36254;BME280;22291;52.250;21.228;2023-02-20T08:21:11;100018.66;;;3.10;76.71
36254;BME280;22291;52.250;21.228;2023-02-20T09:38:59;99838.77;;;2.04;85.70
36254;BME280;22291;52.250;21.228;2023-02-20T09:44:29;99820.83;;;1.92;86.87
36254;BME280;22291;52.250;21.228;2023-02-20T09:47:11;99802.17;;;1.90;87.00
36254;BME280;22291;52.250;21.228;2023-02-20T09:49:34;99789.09;;;1.88;87.72
36254;BME280;22291;52.250;21.228;2023-02-20T09:52:05;99776.28;;;1.85;88.43
36254;BME280;22291;52.250;21.228;2023-02-20T09:54:45;99761.36;;;1.84;88.52
36254;BME280;22291;52.250;21.228;2023-02-20T09:57:17;99752.29;;;1.82;89.18
36254;BME280;22291;52.250;21.228;2023-02-20T10:02:49;99732.02;;;1.79;90.25
36254;BME280;22291;52.250;21.228;2023-02-20T10:05:21;99726.95;;;1.77;91.48
36254;BME280;22291;52.250;21.228;2023-02-20T10:07:49;99722.41;;;1.78;91.94
36254;BME280;22291;52.250;21.228;2023-02-20T10:10:31;99709.33;;;1.76;91.72
36254;BME280;22291;52.250;21.228;2023-02-20T10:13:36;99712.79;;;1.77;91.76
36254;BME280;22291;52.250;21.228;2023-02-20T10:18:53;99696.80;;;1.74;93.05
36254;BME280;22291;52.250;21.228;2023-02-20T10:27:41;99670.94;;;1.72;94.42
36254;BME280;22291;52.250;21.228;2023-02-20T10:30:13;99656.54;;;1.71;94.57
36254;BME280;22291;52.250;21.228;2023-02-20T10:32:51;99641.59;;;1.64;93.78
36254;BME280;22291;52.250;21.228;2023-02-20T10:35:32;99647.20;;;1.60;93.77
36254;BME280;22291;52.250;21.228;2023-02-20T10:38:04;99647.20;;;1.55;93.10
36254;BME280;22291;52.250;21.228;2023-02-20T10:40:47;99649.04;;;1.47;94.03
36254;BME280;22291;52.250;21.228;2023-02-20T10:43:26;99639.17;;;1.40;93.18
36254;BME280;22291;52.250;21.228;2023-02-20T10:46:17;99628.20;;;1.31;94.12
36254;BME280;22291;52.250;21.228;2023-02-20T10:48:52;99622.34;;;1.24;94.39
36254;BME280;22291;52.250;21.228;2023-02-20T10:51:33;99636.98;;;1.16;94.35
36254;BME280;22291;52.250;21.228;2023-02-20T10:54:17;99623.91;;;1.12;93.97
36254;BME280;22291;52.250;21.228;2023-02-20T10:56:58;99615.38;;;1.10;94.67
36254;BME280;22291;52.250;21.228;2023-02-20T11:02:22;99602.59;;;1.04;95.89
36254;BME280;22291;52.250;21.228;2023-02-20T11:05:08;99590.33;;;1.01;95.49
36254;BME280;22291;52.250;21.228;2023-02-20T11:07:37;99577.53;;;0.98;96.70
36254;BME280;22291;52.250;21.228;2023-02-20T11:10:04;99572.19;;;0.95;96.15
36254;BME280;22291;52.250;21.228;2023-02-20T11:12:47;99559.13;;;0.93;96.73
36254;BME280;22291;52.250;21.228;2023-02-20T11:15:21;99567.13;;;0.91;95.95
36254;BME280;22291;52.250;21.228;2023-02-20T11:17:55;99560.99;;;0.88;97.07
36254;BME280;22291;52.250;21.228;2023-02-20T11:23:06;99541.27;;;0.81;96.99
36254;BME280;22291;52.250;21.228;2023-02-20T11:25:34;99535.41;;;0.79;96.59
36254;BME280;22291;52.250;21.228;2023-02-20T11:28:18;99506.66;;;0.79;96.97
36254;BME280;22291;52.250;21.228;2023-02-20T11:30:56;99495.75;;;0.75;97.58
36254;BME280;22291;52.250;21.228;2023-02-20T11:33:29;99460.33;;;0.72;97.86
36254;BME280;22291;52.250;21.228;2023-02-20T11:35:58;99399.10;;;0.72;97.30
36254;BME280;22291;52.250;21.228;2023-02-20T11:38:36;99428.64;;;0.70;97.68
36254;BME280;22291;52.250;21.228;2023-02-20T11:41:22;99432.62;;;0.68;98.27
36254;BME280;22291;52.250;21.228;2023-02-20T11:44:06;99429.98;;;0.70;98.67
36254;BME280;22291;52.250;21.228;2023-02-20T11:46:38;99387.38;;;0.73;99.53
36254;BME280;22291;52.250;21.228;2023-02-20T11:49:07;99352.23;;;0.76;99.94
36254;BME280;22291;52.250;21.228;2023-02-20T11:51:39;99384.19;;;0.81;100.00
36254;BME280;22291;52.250;21.228;2023-02-20T11:54:24;99378.61;;;0.85;100.00
36254;BME280;22291;52.250;21.228;2023-02-20T11:57:10;99348.25;;;0.89;100.00
36254;BME280;22291;52.250;21.228;2023-02-20T12:00:07;99316.80;;;0.93;100.00
36254;BME280;22291;52.250;21.228;2023-02-20T12:02:55;99326.94;;;0.99;100.00
36254;BME280;22291;52.250;21.228;2023-02-20T12:05:58;99322.39;;;1.05;100.00
36254;BME280;22291;52.250;21.228;2023-02-20T12:08:48;99292.03;;;1.11;100.00
36254;BME280;22291;52.250;21.228;2023-02-20T12:11:22;99305.06;;;1.18;100.00
36254;BME280;22291;52.250;21.228;2023-02-20T12:13:55;99281.59;;;1.25;100.00
36254;BME280;22291;52.250;21.228;2023-02-20T12:20:00;99237.30;;;1.39;100.00
36254;BME280;22291;52.250;21.228;2023-02-20T12:22:38;99231.37;;;1.53;100.00
36254;BME280;22291;52.250;21.228;2023-02-20T12:36:27;99203.00;;;2.12;100.00
36254;BME280;22291;52.250;21.228;2023-02-20T12:42:11;99204.16;;;2.32;100.00
36254;BME280;22291;52.250;21.228;2023-02-20T12:47:35;99188.78;;;2.48;100.00
36254;BME280;22291;52.250;21.228;2023-02-20T12:50:22;99196.73;;;2.56;100.00
36254;BME280;22291;52.250;21.228;2023-02-20T12:53:05;99201.19;;;2.63;100.00
36254;BME280;22291;52.250;21.228;2023-02-20T12:58:34;99229.86;;;2.79;100.00
36254;BME280;22291;52.250;21.228;2023-02-20T13:01:20;99209.21;;;2.87;100.00
36254;BME280;22291;52.250;21.228;2023-02-20T13:03:59;99203.53;;;2.94;100.00
36254;BME280;22291;52.250;21.228;2023-02-20T13:06:42;99197.34;;;2.98;100.00
36254;BME280;22291;52.250;21.228;2023-02-20T13:09:34;99202.63;;;3.04;100.00
36254;BME280;22291;52.250;21.228;2023-02-20T13:12:39;99204.45;;;3.08;100.00
36254;BME280;22291;52.250;21.228;2023-02-20T13:18:18;99199.22;;;3.20;100.00
36254;BME280;22291;52.250;21.228;2023-02-20T13:20:49;99185.01;;;3.24;100.00
36254;BME280;22291;52.250;21.228;2023-02-20T13:25:56;99157.88;;;3.33;100.00
36254;BME280;22291;52.250;21.228;2023-02-20T13:36:39;99181.27;;;3.63;100.00
36254;BME280;22291;52.250;21.228;2023-02-20T13:42:00;99157.73;;;3.82;100.00
36254;BME280;22291;52.250;21.228;2023-02-20T13:50:01;99146.94;;;4.03;100.00
36254;BME280;22291;52.250;21.228;2023-02-20T13:52:44;99133.17;;;4.10;100.00
36254;BME280;22291;52.250;21.228;2023-02-20T13:55:15;99111.97;;;4.14;100.00
36254;BME280;22291;52.250;21.228;2023-02-20T13:58:01;99114.32;;;4.18;100.00
36254;BME280;22291;52.250;21.228;2023-02-20T14:00:53;99116.94;;;4.20;100.00
36254;BME280;22291;52.250;21.228;2023-02-20T14:03:22;99111.48;;;4.25;100.00
36254;BME280;22291;52.250;21.228;2023-02-20T14:08:41;99111.27;;;4.38;100.00
36254;BME280;22291;52.250;21.228;2023-02-20T14:11:33;99124.01;;;4.44;100.00
36254;BME280;22291;52.250;21.228;2023-02-20T14:14:09;99104.38;;;4.48;100.00
36254;BME280;22291;52.250;21.228;2023-02-20T14:16:41;99095.17;;;4.55;100.00
36254;BME280;22291;52.250;21.228;2023-02-20T14:19:21;99109.25;;;4.60;100.00
36254;BME280;22291;52.250;21.228;2023-02-20T14:21:45;99093.63;;;4.65;100.00
36254;BME280;22291;52.250;21.228;2023-02-20T14:24:27;99107.41;;;4.72;100.00
36254;BME280;22291;52.250;21.228;2023-02-20T14:26:55;99076.20;;;4.79;100.00
36254;BME280;22291;52.250;21.228;2023-02-20T14:29:25;99072.93;;;4.82;100.00
36254;BME280;22291;52.250;21.228;2023-02-20T14:31:55;99084.02;;;4.89;100.00
36254;BME280;22291;52.250;21.228;2023-02-20T14:37:21;99065.28;;;5.00;99.70
36254;BME280;22291;52.250;21.228;2023-02-20T14:40:13;99077.48;;;5.07;99.43
36254;BME280;22291;52.250;21.228;2023-02-20T14:42:44;99050.64;;;5.09;98.97
36254;BME280;22291;52.250;21.228;2023-02-20T14:45:20;99032.84;;;5.13;98.64
36254;BME280;22291;52.250;21.228;2023-02-20T14:47:54;99021.52;;;5.16;98.40
36254;BME280;22291;52.250;21.228;2023-02-20T14:50:34;99023.09;;;5.17;98.28
36254;BME280;22291;52.250;21.228;2023-02-20T14:53:18;99007.52;;;5.19;98.12
36254;BME280;22291;52.250;21.228;2023-02-20T14:55:50;99005.80;;;5.23;97.80
36254;BME280;22291;52.250;21.228;2023-02-20T14:58:19;99009.77;;;5.26;97.65
36254;BME280;22291;52.250;21.228;2023-02-20T15:00:50;99032.74;;;5.30;97.58
36254;BME280;22291;52.250;21.228;2023-02-20T15:03:27;99025.96;;;5.32;97.53
36254;BME280;22291;52.250;21.228;2023-02-20T15:06:00;98996.64;;;5.36;97.17
36254;BME280;22291;52.250;21.228;2023-02-20T15:08:33;98999.20;;;5.41;97.12
36254;BME280;22291;52.250;21.228;2023-02-20T15:11:08;98971.52;;;5.43;97.00
36254;BME280;22291;52.250;21.228;2023-02-20T15:13:42;98987.82;;;5.47;96.88
36254;BME280;22291;52.250;21.228;2023-02-20T15:16:15;98987.19;;;5.50;96.70
36254;BME280;22291;52.250;21.228;2023-02-20T15:18:51;98977.19;;;5.53;96.34
36254;BME280;22291;52.250;21.228;2023-02-20T15:21:36;98956.94;;;5.58;96.15
36254;BME280;22291;52.250;21.228;2023-02-20T15:29:43;98990.38;;;5.72;95.72
36254;BME280;22291;52.250;21.228;2023-02-20T15:32:17;98958.91;;;5.75;95.49
36254;BME280;22291;52.250;21.228;2023-02-20T15:34:48;98960.06;;;5.83;94.91
36254;BME280;22291;52.250;21.228;2023-02-20T15:37:20;98964.27;;;5.86;94.64
36254;BME280;22291;52.250;21.228;2023-02-20T15:39:52;98953.61;;;5.92;94.55
36254;BME280;22291;52.250;21.228;2023-02-20T15:42:22;98970.41;;;5.98;93.71
36254;BME280;22291;52.250;21.228;2023-02-20T15:44:49;98979.20;;;6.01;93.76
36254;BME280;22291;52.250;21.228;2023-02-20T15:47:18;98979.20;;;6.01;93.76
36254;BME280;22291;52.250;21.228;2023-02-20T15:49:44;98977.52;;;6.03;93.48
36254;BME280;22291;52.250;21.228;2023-02-20T15:52:16;98971.00;;;6.06;93.12
36254;BME280;22291;52.250;21.228;2023-02-20T15:54:47;98969.58;;;6.09;93.38
36254;BME280;22291;52.250;21.228;2023-02-20T15:57:16;98940.77;;;6.12;93.02
36254;BME280;22291;52.250;21.228;2023-02-20T15:59:44;98953.33;;;6.14;92.94
36254;BME280;22291;52.250;21.228;2023-02-20T16:02:14;98945.73;;;6.16;92.71
36254;BME280;22291;52.250;21.228;2023-02-20T16:04:46;98946.47;;;6.19;92.51
36254;BME280;22291;52.250;21.228;2023-02-20T16:07:15;98944.03;;;6.20;92.56
36254;BME280;22291;52.250;21.228;2023-02-20T16:09:43;98933.45;;;6.24;91.61
36254;BME280;22291;52.250;21.228;2023-02-20T16:12:16;98937.64;;;6.27;91.05
36254;BME280;22291;52.250;21.228;2023-02-20T16:14:48;98921.44;;;6.30;91.17
36254;BME280;22291;52.250;21.228;2023-02-20T16:17:25;98921.13;;;6.31;91.38